createdAt,value
2022-09-13T00:01:17.918Z,11.30
2022-09-13T00:03:49.851Z,11.24
2022-09-13T00:06:23.064Z,11.18
2022-09-13T00:08:55.075Z,11.08
2022-09-13T00:11:29.664Z,11.02
2022-09-13T00:14:01.577Z,10.92
2022-09-13T00:16:33.513Z,10.83
2022-09-13T00:19:05.763Z,10.77
2022-09-13T00:21:37.925Z,10.73
2022-09-13T00:24:10.691Z,10.71
2022-09-13T00:26:42.796Z,10.70
2022-09-13T00:29:14.832Z,10.72
2022-09-13T00:31:46.796Z,10.72
2022-09-13T00:34:18.705Z,10.69
2022-09-13T00:36:50.592Z,10.65
2022-09-13T00:39:22.967Z,10.61
2022-09-13T00:41:55.127Z,10.56
2022-09-13T00:45:00.014Z,10.48
2022-09-13T00:47:39.261Z,10.43
2022-09-13T00:50:19.959Z,10.38
2022-09-13T00:52:57.930Z,10.32
2022-09-13T00:55:35.536Z,10.27
2022-09-13T00:58:10.536Z,10.20
2022-09-13T01:00:43.509Z,10.14
2022-09-13T01:03:18.174Z,10.06
2022-09-13T01:05:52.961Z,10.01
2022-09-13T01:08:25.312Z,9.95
2022-09-13T01:11:00.210Z,9.90
2022-09-13T01:13:35.065Z,9.85
2022-09-13T01:16:07.532Z,9.80
2022-09-13T01:18:39.503Z,9.76
2022-09-13T01:21:45.884Z,9.71
2022-09-13T01:24:32.831Z,9.69
2022-09-13T01:27:42.904Z,9.66
2022-09-13T01:30:18.253Z,9.62
2022-09-13T01:33:24.205Z,9.59
2022-09-13T01:36:31.973Z,9.55
2022-09-13T01:39:09.416Z,9.51
2022-09-13T01:42:07.015Z,9.48
2022-09-13T01:45:01.013Z,9.46
2022-09-13T01:47:46.254Z,9.45
2022-09-13T01:50:23.785Z,9.45
2022-09-13T01:53:10.161Z,9.47
2022-09-13T01:55:47.499Z,9.49
2022-09-13T01:58:22.318Z,9.52
2022-09-13T02:01:06.279Z,9.56
2022-09-13T02:03:47.028Z,9.61
2022-09-13T02:06:22.269Z,9.66
2022-09-13T02:09:01.025Z,9.70
2022-09-13T02:11:35.027Z,9.76
2022-09-13T02:14:15.336Z,9.80
2022-09-13T02:16:50.997Z,9.85
2022-09-13T02:19:29.366Z,9.89
2022-09-13T02:22:03.797Z,9.94
2022-09-13T02:24:38.632Z,9.97
2022-09-13T02:27:16.496Z,9.99
2022-09-13T02:29:51.761Z,10.00
2022-09-13T02:32:30.262Z,10.00
2022-09-13T02:35:08.041Z,9.97
2022-09-13T02:37:42.222Z,9.94
2022-09-13T02:40:21.566Z,9.88
2022-09-13T02:42:59.481Z,9.82
2022-09-13T02:45:34.453Z,9.75
2022-09-13T02:48:16.480Z,9.68
2022-09-13T02:51:09.452Z,9.61
2022-09-13T02:53:47.194Z,9.56
2022-09-13T02:56:34.678Z,9.49
2022-09-13T02:59:18.929Z,9.46
2022-09-13T03:01:59.853Z,9.42
2022-09-13T03:04:31.902Z,9.42
2022-09-13T03:07:07.780Z,9.41
2022-09-13T03:09:42.764Z,9.44
2022-09-13T03:12:17.789Z,9.45
2022-09-13T03:14:55.615Z,9.45
2022-09-13T03:17:52.924Z,9.49
2022-09-13T03:20:52.858Z,9.55
2022-09-13T03:23:33.435Z,9.63
2022-09-13T03:26:11.153Z,9.74
2022-09-13T03:28:55.009Z,9.84
2022-09-13T03:31:54.082Z,9.95
2022-09-13T03:34:41.079Z,10.07
2022-09-13T03:37:35.895Z,10.19
2022-09-13T03:40:19.820Z,10.34
2022-09-13T03:43:06.635Z,10.47
2022-09-13T03:45:47.652Z,10.59
2022-09-13T03:48:20.846Z,10.74
2022-09-13T03:50:52.961Z,10.89
2022-09-13T03:53:31.087Z,11.01
2022-09-13T03:56:05.094Z,11.11
2022-09-13T03:58:37.121Z,11.19
2022-09-13T04:01:10.623Z,11.28
2022-09-13T04:03:42.801Z,11.35
2022-09-13T04:06:14.974Z,11.42
2022-09-13T04:08:47.366Z,11.54
2022-09-13T04:11:20.824Z,11.64
2022-09-13T04:13:52.860Z,11.76
2022-09-13T04:16:25.051Z,11.88
2022-09-13T04:18:57.175Z,12.00
2022-09-13T04:21:29.224Z,12.14
2022-09-13T04:24:01.151Z,12.32
2022-09-13T04:26:34.983Z,12.47
2022-09-13T04:29:07.039Z,12.62
2022-09-13T04:31:39.474Z,12.76
2022-09-13T04:34:11.834Z,12.92
2022-09-13T04:36:44.226Z,13.03
2022-09-13T04:39:16.378Z,13.13
2022-09-13T04:41:49.972Z,13.16
2022-09-13T04:44:23.184Z,13.19
2022-09-13T04:46:55.913Z,13.21
2022-09-13T04:49:28.059Z,13.24
2022-09-13T04:52:00.377Z,13.28
2022-09-13T04:54:32.330Z,13.36
2022-09-13T04:57:04.345Z,13.53
2022-09-13T04:59:36.548Z,13.66
2022-09-13T05:02:08.554Z,13.80
2022-09-13T05:04:40.839Z,13.91
2022-09-13T05:07:13.035Z,13.98
2022-09-13T05:09:45.369Z,14.02
2022-09-13T05:12:17.258Z,14.01
2022-09-13T05:14:49.408Z,13.97
2022-09-13T05:17:21.964Z,13.94
2022-09-13T05:19:54.016Z,13.92
2022-09-13T05:22:27.131Z,13.89
2022-09-13T05:24:59.344Z,13.87
2022-09-13T05:27:32.580Z,13.87
2022-09-13T05:30:05.267Z,13.88
2022-09-13T05:32:37.504Z,13.91
2022-09-13T05:35:10.049Z,13.96
2022-09-13T05:37:42.157Z,13.99
2022-09-13T05:40:14.450Z,14.08
2022-09-13T05:42:46.510Z,14.15
2022-09-13T05:45:18.914Z,14.22
2022-09-13T05:47:52.915Z,14.26
2022-09-13T05:50:54.208Z,14.33
2022-09-13T05:52:58.867Z,14.36
2022-09-13T05:55:31.394Z,14.41
2022-09-13T05:58:04.102Z,14.42
2022-09-13T06:00:36.043Z,14.42
2022-09-13T06:03:08.947Z,14.58
2022-09-13T06:05:41.167Z,14.65
2022-09-13T06:08:13.413Z,14.69
2022-09-13T06:10:45.503Z,14.65
2022-09-13T06:13:17.574Z,14.53
2022-09-13T06:15:49.806Z,14.47
2022-09-13T06:18:22.167Z,14.45
2022-09-13T06:21:00.379Z,14.51
2022-09-13T06:23:33.014Z,14.56
2022-09-13T06:26:07.324Z,14.62
2022-09-13T06:28:40.423Z,14.71
2022-09-13T06:31:15.938Z,14.85
2022-09-13T06:33:48.092Z,15.02
2022-09-13T06:36:20.853Z,15.16
2022-09-13T06:38:53.010Z,15.31
2022-09-13T06:41:27.477Z,15.59
2022-09-13T06:44:02.904Z,15.59
2022-09-13T06:46:37.234Z,15.82
2022-09-13T06:49:11.092Z,15.82
2022-09-13T06:51:43.077Z,15.94
2022-09-13T06:54:15.130Z,16.02
2022-09-13T06:56:47.312Z,16.03
2022-09-13T06:59:19.310Z,16.01
2022-09-13T07:01:51.853Z,16.01
2022-09-13T07:04:24.378Z,16.01
2022-09-13T07:06:56.594Z,15.99
2022-09-13T07:09:28.965Z,15.98
2022-09-13T07:12:01.144Z,16.03
2022-09-13T07:14:33.861Z,16.13
2022-09-13T07:17:06.228Z,16.19
2022-09-13T07:19:38.607Z,16.44
2022-09-13T07:22:10.750Z,16.44
2022-09-13T07:24:42.677Z,16.53
2022-09-13T07:27:16.995Z,16.57
2022-09-13T07:29:48.880Z,16.67
2022-09-13T07:32:21.054Z,16.75
2022-09-13T07:34:53.286Z,16.90
2022-09-13T07:37:25.379Z,17.09
2022-09-13T07:39:57.622Z,17.27
2022-09-13T07:42:29.772Z,17.44
2022-09-13T07:45:02.170Z,17.56
2022-09-13T07:47:34.925Z,17.66
2022-09-13T07:50:07.295Z,17.68
2022-09-13T07:52:40.331Z,17.54
2022-09-13T07:55:12.302Z,17.41
2022-09-13T07:57:44.463Z,17.51
2022-09-13T08:00:16.883Z,17.71
2022-09-13T08:02:48.913Z,17.79
2022-09-13T08:05:21.041Z,17.82
2022-09-13T08:07:53.080Z,17.74
2022-09-13T08:10:25.456Z,17.58
2022-09-13T08:12:57.796Z,17.45
2022-09-13T08:15:30.325Z,17.32
2022-09-13T08:18:02.430Z,17.24
2022-09-13T08:20:39.228Z,17.17
2022-09-13T08:23:12.645Z,17.14
2022-09-13T08:25:44.736Z,17.10
2022-09-13T08:28:19.253Z,17.06
2022-09-13T08:30:51.248Z,16.95
2022-09-13T08:33:23.451Z,16.83
2022-09-13T08:35:55.760Z,16.80
2022-09-13T08:38:27.887Z,16.75
2022-09-13T08:41:02.768Z,16.78
2022-09-13T08:43:54.089Z,16.79
2022-09-13T08:46:32.549Z,16.84
2022-09-13T08:49:07.407Z,16.92
2022-09-13T08:51:52.041Z,17.05
2022-09-13T08:54:24.168Z,17.26
2022-09-13T08:57:11.046Z,17.37
2022-09-13T09:00:08.738Z,17.49
2022-09-13T09:02:50.110Z,17.53
2022-09-13T09:05:33.760Z,17.58
2022-09-13T09:08:17.632Z,17.67
2022-09-13T09:10:52.101Z,17.76
2022-09-13T09:13:33.084Z,17.89
2022-09-13T09:16:14.121Z,18.02
2022-09-13T09:18:48.793Z,18.09
2022-09-13T09:21:22.147Z,18.17
2022-09-13T09:23:57.017Z,18.19
2022-09-13T09:26:31.604Z,18.21
2022-09-13T09:29:25.077Z,18.22
2022-09-13T09:32:15.459Z,18.24
2022-09-13T09:35:09.093Z,18.21
2022-09-13T09:37:42.240Z,18.18
2022-09-13T09:40:17.648Z,18.17
2022-09-13T09:42:52.910Z,18.15
2022-09-13T09:45:30.907Z,18.20
2022-09-13T09:48:05.816Z,18.26
2022-09-13T09:50:42.251Z,18.50
2022-09-13T09:53:27.858Z,18.78
2022-09-13T09:56:05.872Z,19.09
2022-09-13T09:58:43.433Z,19.38
2022-09-13T10:01:25.571Z,19.47
2022-09-13T10:04:16.605Z,19.46
2022-09-13T10:06:50.229Z,19.42
2022-09-13T10:09:24.188Z,19.34
2022-09-13T10:11:59.011Z,19.38
2022-09-13T10:14:40.292Z,19.38
2022-09-13T10:17:31.019Z,19.44
2022-09-13T10:20:06.120Z,19.31
2022-09-13T10:22:38.538Z,19.17
2022-09-13T10:25:18.746Z,18.97
2022-09-13T10:27:57.297Z,18.76
2022-09-13T10:30:38.310Z,18.59
2022-09-13T10:33:22.125Z,18.53
2022-09-13T10:35:57.774Z,18.48
2022-09-13T10:38:32.747Z,18.46
2022-09-13T10:41:08.157Z,18.47
2022-09-13T10:43:41.100Z,18.44
2022-09-13T10:46:16.023Z,18.38
2022-09-13T10:48:59.550Z,18.33
2022-09-13T10:51:36.233Z,18.24
2022-09-13T10:54:23.522Z,18.15
2022-09-13T10:56:55.891Z,18.04
2022-09-13T10:59:33.199Z,18.00
2022-09-13T11:02:35.425Z,17.97
2022-09-13T11:05:29.064Z,17.95
2022-09-13T11:08:16.241Z,17.91
2022-09-13T11:10:57.415Z,17.89
2022-09-13T11:13:32.608Z,17.84
2022-09-13T11:16:22.737Z,17.77
2022-09-13T11:19:20.591Z,17.69
2022-09-13T11:22:07.528Z,17.60
2022-09-13T11:24:45.375Z,17.57
2022-09-13T11:27:23.684Z,17.57
2022-09-13T11:30:18.538Z,17.55
2022-09-13T11:32:56.352Z,17.53
2022-09-13T11:36:04.226Z,17.40
2022-09-13T11:38:42.226Z,17.42
2022-09-13T11:41:31.534Z,17.38
2022-09-13T11:44:36.525Z,17.38
2022-09-13T11:47:17.296Z,17.46
2022-09-13T11:50:01.130Z,17.51
2022-09-13T11:53:00.100Z,17.50
2022-09-13T11:55:37.926Z,17.51
2022-09-13T11:58:18.852Z,17.48
2022-09-13T12:00:53.962Z,17.47
2022-09-13T12:03:43.908Z,17.40
2022-09-13T12:06:22.109Z,17.36
2022-09-13T12:08:57.044Z,17.31
2022-09-13T12:11:41.630Z,17.30
2022-09-13T12:14:25.217Z,17.27
2022-09-13T12:17:00.387Z,17.24
2022-09-13T12:19:44.294Z,17.20
2022-09-13T12:22:16.950Z,17.15
2022-09-13T12:24:55.752Z,17.11
2022-09-13T12:27:42.410Z,17.07
2022-09-13T12:30:20.790Z,17.04
2022-09-13T12:32:58.039Z,16.99
2022-09-13T12:35:35.917Z,16.95
2022-09-13T12:38:22.964Z,16.92
2022-09-13T12:41:20.515Z,16.87
2022-09-13T12:44:04.264Z,16.91
2022-09-13T12:47:01.016Z,16.94
2022-09-13T12:49:53.234Z,16.91
2022-09-13T12:52:57.104Z,16.83
2022-09-13T12:55:47.151Z,16.71
2022-09-13T12:58:44.386Z,16.67
2022-09-13T13:01:19.737Z,16.72
2022-09-13T13:03:54.848Z,16.80
2022-09-13T13:06:33.632Z,16.83
2022-09-13T13:09:40.986Z,16.89
2022-09-13T13:12:31.043Z,16.95
2022-09-13T13:15:09.540Z,16.99
2022-09-13T13:17:51.295Z,17.01
2022-09-13T13:20:44.732Z,17.00
2022-09-13T13:23:23.691Z,17.00
2022-09-13T13:26:30.040Z,17.02
2022-09-13T13:29:08.009Z,16.98
2022-09-13T13:31:42.701Z,16.94
2022-09-13T13:34:20.609Z,16.93
2022-09-13T13:37:13.376Z,16.92
2022-09-13T13:39:48.236Z,16.88
2022-09-13T13:42:34.455Z,16.84
2022-09-13T13:45:09.747Z,16.80
2022-09-13T13:47:44.707Z,16.77
2022-09-13T13:50:20.156Z,16.74
2022-09-13T13:52:56.893Z,16.76
2022-09-13T13:55:49.747Z,16.74
2022-09-13T13:58:27.823Z,16.72
2022-09-13T14:01:03.076Z,16.73
2022-09-13T14:03:44.120Z,16.83
2022-09-13T14:06:28.031Z,16.89
2022-09-13T14:09:06.375Z,16.85
2022-09-13T14:12:05.347Z,16.84
2022-09-13T14:15:05.522Z,16.80
2022-09-13T14:17:46.221Z,16.75
2022-09-13T14:20:21.584Z,16.71
2022-09-13T14:22:55.163Z,16.74
2022-09-13T14:25:27.917Z,16.73
2022-09-13T14:28:02.519Z,16.77
2022-09-13T14:30:37.674Z,16.77
2022-09-13T14:33:13.201Z,16.77
2022-09-13T14:35:46.437Z,16.78
2022-09-13T14:38:25.600Z,16.75
2022-09-13T14:41:06.821Z,16.73
2022-09-13T14:43:39.827Z,16.69
2022-09-13T14:46:32.885Z,16.67
2022-09-13T14:49:08.377Z,16.63
2022-09-13T14:51:49.876Z,16.59
2022-09-13T14:54:36.882Z,16.59
2022-09-13T14:57:12.211Z,16.54
2022-09-13T14:59:48.045Z,16.50
2022-09-13T15:02:26.555Z,16.45
2022-09-13T15:05:01.427Z,16.41
2022-09-13T15:07:38.746Z,16.37
2022-09-13T15:10:25.638Z,16.32
2022-09-13T15:13:10.549Z,16.28
2022-09-13T15:15:46.281Z,16.24
2022-09-13T15:18:21.199Z,16.39
2022-09-13T15:21:09.862Z,16.19
2022-09-13T15:23:44.422Z,16.10
2022-09-13T15:26:26.111Z,16.02
2022-09-13T15:29:05.588Z,15.95
2022-09-13T15:31:38.257Z,15.88
2022-09-13T15:34:22.374Z,15.81
2022-09-13T15:37:15.838Z,15.76
2022-09-13T15:39:51.053Z,15.71
2022-09-13T15:42:23.264Z,15.65
2022-09-13T15:44:55.404Z,15.60
2022-09-13T15:47:27.501Z,15.57
2022-09-13T15:50:00.044Z,15.57
2022-09-13T15:52:33.671Z,15.55
2022-09-13T15:55:06.560Z,15.54
2022-09-13T15:57:38.778Z,15.53
2022-09-13T16:00:19.560Z,15.51
2022-09-13T16:02:52.491Z,15.45
2022-09-13T16:05:27.706Z,15.47
2022-09-13T16:08:00.692Z,15.44
2022-09-13T16:10:33.391Z,15.43
2022-09-13T16:13:05.869Z,15.40
2022-09-13T16:15:38.573Z,15.38
2022-09-13T16:18:12.791Z,15.36
2022-09-13T16:20:46.452Z,15.34
2022-09-13T16:23:19.124Z,15.31
2022-09-13T16:25:54.226Z,15.27
2022-09-13T16:28:27.185Z,15.22
2022-09-13T16:30:59.365Z,15.20
2022-09-13T16:33:31.767Z,15.10
2022-09-13T16:36:04.047Z,15.12
2022-09-13T16:38:36.157Z,15.06
2022-09-13T16:41:09.292Z,14.99
2022-09-13T16:43:41.664Z,14.95
2022-09-13T16:46:15.174Z,14.89
2022-09-13T16:48:49.535Z,14.85
2022-09-13T16:51:22.314Z,14.84
2022-09-13T16:53:55.323Z,14.81
2022-09-13T16:56:27.889Z,14.82
2022-09-13T16:59:00.504Z,14.78
2022-09-13T17:01:32.795Z,14.77
2022-09-13T17:04:06.058Z,14.75
2022-09-13T17:06:39.157Z,14.74
2022-09-13T17:09:12.931Z,14.70
2022-09-13T17:11:46.300Z,14.67
2022-09-13T17:14:19.005Z,14.67
2022-09-13T17:16:57.151Z,14.63
2022-09-13T17:19:33.783Z,14.61
2022-09-13T17:22:08.226Z,14.51
2022-09-13T17:24:42.444Z,14.45
2022-09-13T17:27:15.384Z,14.45
2022-09-13T17:29:48.012Z,14.57
2022-09-13T17:32:21.221Z,14.57
2022-09-13T17:34:53.921Z,14.54
2022-09-13T17:37:28.013Z,14.56
2022-09-13T17:40:03.542Z,14.37
2022-09-13T17:42:37.011Z,14.55
2022-09-13T17:45:10.766Z,14.54
2022-09-13T17:47:43.857Z,14.39
2022-09-13T17:50:17.292Z,14.39
2022-09-13T17:52:51.073Z,14.49
2022-09-13T17:55:23.892Z,14.47
2022-09-13T17:57:56.147Z,14.46
2022-09-13T18:00:29.273Z,14.44
2022-09-13T18:03:02.686Z,14.43
2022-09-13T18:05:35.693Z,14.39
2022-09-13T18:08:08.390Z,14.19
2022-09-13T18:10:58.498Z,14.19
2022-09-13T18:13:15.605Z,14.18
2022-09-13T18:15:50.200Z,14.14
2022-09-13T18:18:24.382Z,14.14
2022-09-13T18:20:57.312Z,14.08
2022-09-13T18:23:29.979Z,13.83
2022-09-13T18:26:11.174Z,14.00
2022-09-13T18:28:44.134Z,13.93
2022-09-13T18:31:18.585Z,13.93
2022-09-13T18:33:57.350Z,13.89
2022-09-13T18:36:31.320Z,13.85
2022-09-13T18:39:04.741Z,13.80
2022-09-13T18:41:41.006Z,13.76
2022-09-13T18:44:14.342Z,13.69
2022-09-13T18:46:47.717Z,13.65
2022-09-13T18:49:20.249Z,13.58
2022-09-13T18:51:53.016Z,13.53
2022-09-13T18:54:25.007Z,13.45
2022-09-13T18:56:57.346Z,13.42
2022-09-13T18:59:31.282Z,13.38
2022-09-13T19:02:04.721Z,13.34
2022-09-13T19:04:38.831Z,13.32
2022-09-13T19:07:13.810Z,13.30
2022-09-13T19:09:46.294Z,13.29
2022-09-13T19:12:18.753Z,13.26
2022-09-13T19:14:51.382Z,13.21
2022-09-13T19:17:23.506Z,13.19
2022-09-13T19:19:55.882Z,13.16
2022-09-13T19:22:31.104Z,13.14
2022-09-13T19:25:03.903Z,13.10
2022-09-13T19:27:35.954Z,13.11
2022-09-13T19:30:08.746Z,13.11
2022-09-13T19:32:40.982Z,13.11
2022-09-13T19:35:13.302Z,13.10
2022-09-13T19:37:45.338Z,13.08
2022-09-13T19:40:17.434Z,13.08
2022-09-13T19:42:49.830Z,13.08
2022-09-13T19:45:23.182Z,13.06
2022-09-13T19:48:37.030Z,13.10
2022-09-13T19:50:29.738Z,13.11
2022-09-13T19:53:01.784Z,13.12
2022-09-13T19:55:33.793Z,13.11
2022-09-13T19:58:06.013Z,13.10
2022-09-13T20:00:38.930Z,13.11
2022-09-13T20:03:11.846Z,13.11
2022-09-13T20:05:43.895Z,13.11
2022-09-13T20:08:16.345Z,13.12
2022-09-13T20:10:48.527Z,13.12
2022-09-13T20:13:20.616Z,13.14
2022-09-13T20:15:53.152Z,13.14
2022-09-13T20:18:25.433Z,13.12
2022-09-13T20:20:58.874Z,13.12
2022-09-13T20:23:30.831Z,13.12
2022-09-13T20:26:03.699Z,13.12
2022-09-13T20:28:36.409Z,13.12
2022-09-13T20:31:08.975Z,13.13
2022-09-13T20:33:42.980Z,13.16
2022-09-13T20:36:15.751Z,13.16
2022-09-13T20:38:49.986Z,13.16
2022-09-13T20:41:22.753Z,13.16
2022-09-13T20:43:55.163Z,13.15
2022-09-13T20:46:27.523Z,13.15
2022-09-13T20:49:01.297Z,13.15
2022-09-13T20:51:34.844Z,13.14
2022-09-13T20:54:07.170Z,13.14
2022-09-13T20:56:39.413Z,13.15
2022-09-13T20:59:11.922Z,13.12
2022-09-13T21:01:44.087Z,13.11
2022-09-13T21:04:17.593Z,13.08
2022-09-13T21:07:10.976Z,13.07
2022-09-13T21:09:40.795Z,13.06
2022-09-13T21:12:14.443Z,13.04
2022-09-13T21:14:48.004Z,13.01
2022-09-13T21:17:20.332Z,12.98
2022-09-13T21:19:53.091Z,12.95
2022-09-13T21:22:25.280Z,12.93
2022-09-13T21:24:57.305Z,12.91
2022-09-13T21:27:29.321Z,12.91
2022-09-13T21:30:02.180Z,12.90
2022-09-13T21:32:34.725Z,12.87
2022-09-13T21:35:07.116Z,12.86
2022-09-13T21:37:39.191Z,12.83
2022-09-13T21:40:11.767Z,12.83
2022-09-13T21:42:43.892Z,12.82
2022-09-13T21:45:15.995Z,12.83
2022-09-13T21:47:49.430Z,12.82
2022-09-13T21:50:21.221Z,12.83
2022-09-13T21:52:53.256Z,12.81
2022-09-13T21:55:26.957Z,12.82
2022-09-13T21:57:59.495Z,12.82
2022-09-13T22:00:31.565Z,12.83
2022-09-13T22:03:03.431Z,12.82
2022-09-13T22:05:35.403Z,12.80
2022-09-13T22:08:07.293Z,12.76
2022-09-13T22:10:39.514Z,12.73
2022-09-13T22:13:11.514Z,12.69
2022-09-13T22:15:43.455Z,12.67
2022-09-13T22:18:15.411Z,12.63
2022-09-13T22:20:47.559Z,12.59
2022-09-13T22:23:19.687Z,12.58
2022-09-13T22:25:53.062Z,12.57
2022-09-13T22:28:25.015Z,12.55
2022-09-13T22:30:57.055Z,12.53
2022-09-13T22:33:29.121Z,12.53
2022-09-13T22:36:03.205Z,12.52
2022-09-13T22:38:36.191Z,12.51
2022-09-13T22:41:11.552Z,12.51
2022-09-13T22:43:44.111Z,12.48
2022-09-13T22:46:21.623Z,12.46
2022-09-13T22:48:55.395Z,12.44
2022-09-13T22:51:27.953Z,12.44
2022-09-13T22:54:06.254Z,12.43
2022-09-13T22:56:35.566Z,12.40
2022-09-13T22:59:10.678Z,12.41
2022-09-13T23:01:43.034Z,12.40
2022-09-13T23:04:15.640Z,12.40
2022-09-13T23:06:47.972Z,12.40
2022-09-13T23:09:20.305Z,12.36
2022-09-13T23:11:52.210Z,12.32
2022-09-13T23:14:24.155Z,12.28
2022-09-13T23:16:56.543Z,12.28
2022-09-13T23:19:29.729Z,12.25
2022-09-13T23:22:01.711Z,12.25
2022-09-13T23:24:33.780Z,12.25
2022-09-13T23:27:06.441Z,12.26
2022-09-13T23:29:38.326Z,12.28
2022-09-13T23:32:10.543Z,12.31
2022-09-13T23:34:42.599Z,12.32
2022-09-13T23:37:14.521Z,12.32
2022-09-13T23:39:46.563Z,12.32
2022-09-13T23:42:18.501Z,12.33
2022-09-13T23:44:50.452Z,12.34
2022-09-13T23:47:22.606Z,12.35
2022-09-13T23:49:54.533Z,12.35
2022-09-13T23:52:26.380Z,12.34
2022-09-13T23:54:59.920Z,12.34
2022-09-13T23:57:32.627Z,12.34
